Time;durP1;ratioP1;P1;durP2;ratioP2;P2;SDS_P1;SDS_P2;PMS_P1;PMS_P2;Temp;Humidity;BMP_temperature;BMP_pressure;BME280_temperature;BME280_humidity;BME280_pressure;Samples;Min_cycle;Max_cycle;Signal;HPM_P1;HPM_P2
2022/12/26 00:00:44;;;;;;;65.43;40.80;;;;;;;6.50;100.00;100770.91;4992405;28;20473;-45
2022/12/26 00:03:12;;;;;;;52.03;39.00;;;;;;;6.50;100.00;100771.75;4993149;28;20437;-46
2022/12/26 00:05:39;;;;;;;95.27;42.97;;;;;;;6.52;100.00;100771.56;4992604;28;21034;-45
2022/12/26 00:08:08;;;;;;;40.87;37.07;;;;;;;6.54;100.00;100769.59;4993028;28;20440;-48
2022/12/26 00:10:36;;;;;;;39.43;36.13;;;;;;;6.54;100.00;100762.44;4992357;28;20465;-44
2022/12/26 00:13:04;;;;;;;83.53;44.83;;;;;;;6.58;100.00;100770.88;4992945;28;20445;-46
2022/12/26 00:15:51;;;;;;;38.63;35.63;;;;;;;6.60;100.00;100760.97;4992782;28;20469;-46
2022/12/26 00:18:19;;;;;;;41.00;37.60;;;;;;;6.63;100.00;100760.63;5005643;22;20453;-47
2022/12/26 00:20:47;;;;;;;44.00;39.43;;;;;;;6.65;100.00;100758.63;4930073;29;20479;-47
2022/12/26 00:23:16;;;;;;;38.70;35.60;;;;;;;6.65;100.00;100751.50;4934615;29;20432;-45
2022/12/26 00:25:43;;;;;;;40.60;36.73;;;;;;;6.68;100.00;100750.34;4934442;29;20440;-49
2022/12/26 00:28:11;;;;;;;45.10;40.20;;;;;;;6.69;100.00;100747.50;4934458;29;20437;-47
2022/12/26 00:30:38;;;;;;;41.57;38.20;;;;;;;6.71;100.00;100750.00;4933351;29;20469;-52
2022/12/26 00:33:06;;;;;;;42.60;38.43;;;;;;;6.74;100.00;100736.41;4934673;29;20433;-54
2022/12/26 00:35:34;;;;;;;40.67;37.20;;;;;;;6.78;100.00;100734.25;4934502;29;20437;-49
2022/12/26 00:38:01;;;;;;;43.20;39.37;;;;;;;6.80;100.00;100735.72;4944741;29;20893;-49
2022/12/26 00:40:30;;;;;;;42.03;38.03;;;;;;;6.81;100.00;100726.75;4952992;29;20472;-51
2022/12/26 00:42:58;;;;;;;43.23;39.33;;;;;;;6.85;100.00;100722.75;4953558;29;20443;-48
2022/12/26 00:45:25;;;;;;;45.50;41.10;;;;;;;6.87;100.00;100733.22;4953175;29;20447;-48
2022/12/26 00:47:53;;;;;;;42.67;38.63;;;;;;;6.88;100.00;100717.13;4953731;29;20435;-50
2022/12/26 00:50:21;;;;;;;47.27;42.30;;;;;;;6.89;100.00;100720.59;4953271;28;20830;-49
2022/12/26 00:52:48;;;;;;;63.70;44.97;;;;;;;6.89;100.00;100717.94;4953538;29;20439;-50
2022/12/26 00:55:16;;;;;;;74.83;45.47;;;;;;;6.89;100.00;100715.28;4953308;29;20436;-51
2022/12/26 00:57:45;;;;;;;45.27;40.67;;;;;;;6.89;100.00;100723.25;4953344;29;20428;-48
2022/12/26 01:00:14;;;;;;;46.00;41.47;;;;;;;6.92;100.00;100722.91;4952826;28;20540;-51
2022/12/26 01:02:42;;;;;;;46.80;41.70;;;;;;;6.92;100.00;100714.94;4953580;29;20861;-46
2022/12/26 01:05:11;;;;;;;57.40;43.50;;;;;;;6.94;100.00;100734.16;4953130;29;20961;-47
2022/12/26 01:07:40;;;;;;;45.43;40.87;;;;;;;6.95;100.00;100726.03;4953420;29;20447;-50
2022/12/26 01:10:28;;;;;;;49.73;41.93;;;;;;;6.96;100.00;100734.81;4952758;28;20469;-53
2022/12/26 01:12:57;;;;;;;45.73;40.83;;;;;;;6.96;100.00;100727.66;4953571;29;20436;-47
2022/12/26 01:15:24;;;;;;;52.47;44.03;;;;;;;6.96;100.00;100722.38;4953059;29;20436;-46
2022/12/26 01:17:52;;;;;;;49.53;42.07;;;;;;;6.97;100.00;100710.78;4953445;29;20432;-45
2022/12/26 01:20:20;;;;;;;81.93;45.00;;;;;;;6.99;100.00;100710.63;4952541;28;20996;-46
2022/12/26 01:22:47;;;;;;;125.83;53.57;;;;;;;6.99;100.00;100697.34;4952691;29;20432;-44
2022/12/26 01:25:15;;;;;;;72.57;44.77;;;;;;;6.98;100.00;100704.47;4953121;29;20458;-45
2022/12/26 01:27:42;;;;;;;115.67;50.17;;;;;;;6.99;100.00;100700.81;4953313;29;20464;-47
2022/12/26 01:30:12;;;;;;;64.00;43.47;;;;;;;7.00;100.00;100709.59;4952708;28;20463;-46
2022/12/26 01:32:40;;;;;;;63.93;45.70;;;;;;;6.98;100.00;100707.13;4953238;29;20434;-46
2022/12/26 01:35:08;;;;;;;58.03;42.30;;;;;;;7.00;100.00;100705.13;4952711;29;20447;-46
2022/12/26 01:37:35;;;;;;;107.23;48.90;;;;;;;7.02;100.00;100710.22;4949818;29;20439;-46
2022/12/26 01:40:04;;;;;;;80.67;45.90;;;;;;;7.03;100.00;100719.84;4952362;28;20841;-47
2022/12/26 01:42:37;;;;;;;54.70;43.47;;;;;;;7.04;100.00;100719.69;4955074;28;20431;-48
2022/12/26 01:45:17;;;;;;;72.17;46.13;;;;;;;7.03;100.00;100710.06;4956214;29;20439;-46
2022/12/26 01:47:51;;;;;;;97.90;47.80;;;;;;;7.03;100.00;100715.38;4956407;29;20440;-45
2022/12/26 01:50:28;;;;;;;72.73;45.10;;;;;;;7.01;100.00;100720.03;4955863;28;20475;-45
2022/12/26 01:52:59;;;;;;;72.97;47.50;;;;;;;7.00;100.00;100720.19;4956362;29;20547;-47
2022/12/26 01:55:30;;;;;;;106.07;50.20;;;;;;;7.01;100.00;100724.50;4955773;29;20440;-46
2022/12/26 01:58:02;;;;;;;73.67;43.97;;;;;;;6.98;100.00;100725.69;4956178;29;20440;-48
2022/12/26 02:00:31;;;;;;;112.60;49.53;;;;;;;6.99;100.00;100713.25;4954891;28;20479;-46
2022/12/26 02:05:46;;;;;;;134.13;51.40;;;;;;;7.01;100.00;100713.91;4955273;29;20432;-47
2022/12/26 02:08:17;;;;;;;118.13;50.97;;;;;;;7.00;100.00;100713.06;4955505;28;20420;-47
2022/12/26 02:10:49;;;;;;;158.50;50.00;;;;;;;7.01;100.00;100709.44;4955110;28;20468;-48
2022/12/26 02:13:18;;;;;;;69.30;43.57;;;;;;;7.02;100.00;100710.22;4955766;29;20952;-47
2022/12/26 02:15:47;;;;;;;195.53;53.43;;;;;;;7.02;100.00;100705.75;4955341;29;20451;-46
2022/12/26 02:18:16;;;;;;;122.53;49.20;;;;;;;7.02;100.00;100702.28;4955223;28;20436;-48
2022/12/26 02:20:57;;;;;;;122.67;50.07;;;;;;;7.02;100.00;100705.75;4954884;28;20486;-45
2022/12/26 02:24:15;;;;;;;61.63;42.83;;;;;;;7.04;100.00;100711.75;4955493;29;20455;-45
2022/12/26 02:27:05;;;;;;;68.57;42.90;;;;;;;7.03;100.00;100718.03;4955194;29;20436;-49
2022/12/26 02:30:03;;;;;;;134.27;48.73;;;;;;;7.03;100.00;100709.25;4954586;28;20495;-48
2022/12/26 02:32:58;;;;;;;101.10;45.17;;;;;;;7.03;100.00;100707.44;4955624;29;20438;-45
2022/12/26 02:35:37;;;;;;;311.27;64.80;;;;;;;7.04;100.00;100702.94;4955453;29;20468;-45
2022/12/26 02:38:15;;;;;;;208.27;55.67;;;;;;;7.03;100.00;100709.25;4952476;28;20436;-45
2022/12/26 02:40:53;;;;;;;161.50;51.20;;;;;;;7.04;100.00;100701.13;4954909;28;20484;-45
2022/12/26 02:43:32;;;;;;;124.60;47.10;;;;;;;7.05;100.00;100701.94;4955584;29;20439;-50
2022/12/26 02:49:03;;;;;;;133.30;47.03;;;;;;;7.05;100.00;100712.53;4954974;28;20491;-46
2022/12/26 03:14:32;;;;;;;44.00;37.50;;;;;;;6.93;100.00;100714.75;4954907;29;20432;-49
2022/12/26 03:17:20;;;;;;;43.63;36.20;;;;;;;6.93;100.00;100714.75;4955060;29;20446;-48
2022/12/26 03:19:59;;;;;;;43.97;36.90;;;;;;;6.94;100.00;100716.41;4954237;28;20472;-48
2022/12/26 03:22:34;;;;;;;38.87;34.83;;;;;;;6.96;100.00;100711.75;4955056;29;20431;-47
2022/12/26 03:27:52;;;;;;;37.60;33.70;;;;;;;7.00;100.00;100710.44;4954681;29;20459;-50
2022/12/26 03:34:15;;;;;;;32.80;29.90;;;;;;;7.05;100.00;100704.59;4954666;29;20925;-47
2022/12/26 03:35:54;;;;;;;33.63;30.70;;;;;;;7.06;100.00;100706.25;4954239;29;20995;-49
2022/12/26 03:38:29;;;;;;;34.13;31.30;;;;;;;7.08;100.00;100699.75;4951022;28;20436;-46
2022/12/26 04:44:10;;;;;;;34.23;31.40;;;;;;;7.23;100.00;100673.31;4953419;29;20945;-47
2022/12/26 04:46:42;;;;;;;34.43;31.87;;;;;;;7.22;100.00;100674.34;4953497;29;20535;-49
2022/12/26 04:52:00;;;;;;;32.93;30.20;;;;;;;7.19;100.00;100682.63;4953099;29;20428;-50
2022/12/26 04:54:28;;;;;;;30.90;28.80;;;;;;;7.17;100.00;100681.97;4952841;29;20505;-45
2022/12/26 04:56:56;;;;;;;31.23;29.10;;;;;;;7.18;100.00;100670.38;4952877;29;20431;-49
2022/12/26 04:59:25;;;;;;;29.37;27.60;;;;;;;7.19;100.00;100674.69;4952320;28;20474;-46
2022/12/26 05:10:17;;;;;;;30.23;28.27;;;;;;;7.21;100.00;100691.22;4952273;28;20476;-45
2022/12/26 05:12:45;;;;;;;34.13;31.40;;;;;;;7.20;100.00;100686.91;4952916;29;20428;-47
2022/12/26 05:15:13;;;;;;;33.27;30.43;;;;;;;7.22;100.00;100687.59;4952728;29;20450;-50
2022/12/26 05:28:56;;;;;;;46.60;35.90;;;;;;;7.22;100.00;100687.59;4955593;28;20814;-50
2022/12/26 05:31:24;;;;;;;59.27;38.50;;;;;;;7.21;100.00;100677.97;4956340;29;20424;-46
2022/12/26 05:34:05;;;;;;;49.57;35.47;;;;;;;7.20;100.00;100685.09;4956164;29;20950;-49
2022/12/26 05:36:37;;;;;;;44.20;36.80;;;;;;;7.22;100.00;100684.94;4954851;29;20486;-45
2022/12/26 05:39:05;;;;;;;39.47;34.77;;;;;;;7.23;100.00;100686.56;4955219;28;20464;-46
2022/12/26 05:41:33;;;;;;;47.57;35.63;;;;;;;7.23;100.00;100676.78;4956489;29;20478;-45
2022/12/26 05:44:01;;;;;;;42.50;35.07;;;;;;;7.24;100.00;100681.09;4956309;29;20534;-45
2022/12/26 05:46:28;;;;;;;44.00;36.93;;;;;;;7.24;100.00;100675.81;4956733;29;20814;-45
2022/12/26 05:48:56;;;;;;;67.73;40.07;;;;;;;7.24;100.00;100664.38;4955771;28;20459;-45
2022/12/26 05:51:25;;;;;;;57.93;38.50;;;;;;;7.26;100.00;100666.84;4956202;29;20431;-48
2022/12/26 05:53:53;;;;;;;46.67;37.73;;;;;;;7.26;100.00;100661.53;4956617;29;20435;-45
2022/12/26 05:56:22;;;;;;;48.40;36.40;;;;;;;7.28;100.00;100670.16;4956341;29;20961;-47
2022/12/26 05:58:54;;;;;;;40.17;35.93;;;;;;;7.27;100.00;100669.31;4955953;28;20455;-51
2022/12/26 06:01:22;;;;;;;52.10;38.37;;;;;;;7.29;100.00;100669.94;4956274;29;20834;-49
2022/12/26 06:03:52;;;;;;;70.30;39.83;;;;;;;7.29;100.00;100662.00;4956267;29;20435;-46
2022/12/26 06:06:21;;;;;;;54.67;39.43;;;;;;;7.30;100.00;100668.13;4956439;29;20798;-52
2022/12/26 06:08:53;;;;;;;55.37;38.60;;;;;;;7.30;100.00;100668.97;4955783;28;20467;-50
2022/12/26 06:11:21;;;;;;;53.50;38.30;;;;;;;7.30;100.00;100665.47;4956324;29;20424;-49
2022/12/26 06:13:49;;;;;;;49.97;38.53;;;;;;;7.30;100.00;100663.66;4956022;29;20902;-49
2022/12/26 06:16:18;;;;;;;60.57;38.87;;;;;;;7.32;100.00;100669.59;4955981;29;20435;-47
2022/12/26 06:18:47;;;;;;;48.27;37.47;;;;;;;7.34;100.00;100675.56;4955298;28;20514;-52
2022/12/26 06:21:17;;;;;;;45.50;37.53;;;;;;;7.35;100.00;100669.25;4956067;29;20424;-53
2022/12/26 06:23:46;;;;;;;60.63;41.40;;;;;;;7.35;100.00;100663.13;4956096;29;20850;-50
2022/12/26 06:26:16;;;;;;;53.40;38.60;;;;;;;7.37;100.00;100669.91;4955848;29;20432;-51
2022/12/26 06:28:45;;;;;;;49.00;38.80;;;;;;;7.36;100.00;100667.41;4954261;28;20447;-48
2022/12/26 06:31:19;;;;;;;49.40;38.03;;;;;;;7.36;100.00;100668.25;4955689;29;20447;-48
2022/12/26 06:33:47;;;;;;;51.77;37.97;;;;;;;7.37;100.00;100669.91;4955991;29;20443;-46
2022/12/26 06:36:17;;;;;;;43.10;35.97;;;;;;;7.37;100.00;100677.88;4955515;29;20436;-52
2022/12/26 06:38:45;;;;;;;49.90;38.17;;;;;;;7.35;100.00;100677.19;4948730;28;20862;-46
2022/12/26 06:41:18;;;;;;;49.80;38.43;;;;;;;7.38;100.00;100673.41;4955542;29;20435;-52
2022/12/26 06:43:47;;;;;;;46.10;38.27;;;;;;;7.40;100.00;100658.94;4955502;29;20446;-47
2022/12/26 06:46:18;;;;;;;53.30;39.40;;;;;;;7.40;100.00;100663.41;4955524;29;20436;-48
2022/12/26 06:48:46;;;;;;;41.93;36.63;;;;;;;7.40;100.00;100663.41;4954996;28;20460;-52
2022/12/26 06:51:16;;;;;;;42.40;38.07;;;;;;;7.40;100.00;100663.41;4955353;29;20435;-48
2022/12/26 06:53:44;;;;;;;42.47;38.20;;;;;;;7.42;100.00;100669.38;4955340;29;20500;-48
2022/12/26 06:56:14;;;;;;;53.80;39.80;;;;;;;7.41;100.00;100665.88;4955030;29;20806;-48
2022/12/26 06:58:44;;;;;;;45.23;39.10;;;;;;;7.41;100.00;100663.22;4955019;28;20456;-48
2022/12/26 07:01:13;;;;;;;44.57;39.60;;;;;;;7.42;100.00;100656.94;4955240;29;20445;-52
2022/12/26 07:03:42;;;;;;;54.47;42.47;;;;;;;7.45;100.00;100669.00;4955253;29;20542;-52
2022/12/26 07:06:23;;;;;;;47.60;40.77;;;;;;;7.44;100.00;100665.53;4954868;29;20514;-49
2022/12/26 07:08:52;;;;;;;53.37;42.67;;;;;;;7.44;100.00;100672.66;4954822;28;20459;-47
2022/12/26 07:11:21;;;;;;;53.03;41.40;;;;;;;7.45;100.00;100666.34;4955213;29;20802;-49
2022/12/26 07:13:51;;;;;;;50.33;44.83;;;;;;;7.46;100.00;100668.84;4954726;29;20542;-47
2022/12/26 07:16:18;;;;;;;58.47;43.93;;;;;;;7.48;100.00;100671.31;4951829;29;20432;-47
2022/12/26 07:18:46;;;;;;;56.43;42.90;;;;;;;7.48;100.00;100672.13;4933028;29;20464;-49
2022/12/26 07:21:15;;;;;;;54.73;46.93;;;;;;;7.49;100.00;100670.31;4941455;29;20436;-47
2022/12/26 07:23:43;;;;;;;66.13;47.10;;;;;;;7.51;100.00;100670.94;4953115;29;20480;-49
2022/12/26 07:26:11;;;;;;;56.60;46.03;;;;;;;7.51;100.00;100677.09;4953005;29;20448;-49
2022/12/26 07:28:38;;;;;;;54.33;46.80;;;;;;;7.52;100.00;100673.44;4953240;28;20893;-47
2022/12/26 07:31:07;;;;;;;61.97;45.83;;;;;;;7.54;100.00;100665.28;4952062;29;20466;-48
2022/12/26 07:33:35;;;;;;;54.07;45.53;;;;;;;7.53;100.00;100677.72;4952939;29;20436;-47
2022/12/26 07:36:05;;;;;;;53.83;45.47;;;;;;;7.53;100.00;100682.19;4952623;29;20470;-45
2022/12/26 07:38:33;;;;;;;51.10;44.90;;;;;;;7.54;100.00;100678.56;4949356;28;20464;-47
2022/12/26 07:41:56;;;;;;;59.60;46.83;;;;;;;7.53;100.00;100684.84;4952102;28;20463;-46
2022/12/26 07:43:49;;;;;;;51.30;44.33;;;;;;;7.51;100.00;100682.41;4952393;29;20491;-51
2022/12/26 07:46:19;;;;;;;52.43;46.53;;;;;;;7.51;100.00;100677.09;4952250;29;20474;-46
2022/12/26 07:48:47;;;;;;;55.10;44.93;;;;;;;7.53;100.00;100680.38;4952743;28;20448;-44
2022/12/26 07:51:14;;;;;;;54.53;46.23;;;;;;;7.54;100.00;100678.56;4952862;29;20930;-44
2022/12/26 07:53:42;;;;;;;57.37;46.97;;;;;;;7.56;100.00;100677.38;4952539;29;20436;-44
2022/12/26 07:56:09;;;;;;;50.23;43.63;;;;;;;7.55;100.00;100672.25;4952433;29;20499;-47
2022/12/26 07:58:37;;;;;;;48.87;43.70;;;;;;;7.54;100.00;100671.44;4952513;28;20460;-48
2022/12/26 08:01:05;;;;;;;49.10;43.33;;;;;;;7.55;100.00;100680.22;4952023;29;20454;-45
2022/12/26 08:03:34;;;;;;;56.80;46.90;;;;;;;7.57;100.00;100672.88;4952225;29;20487;-48
2022/12/26 08:06:02;;;;;;;47.93;42.83;;;;;;;7.57;100.00;100672.88;4952464;29;20538;-47
2022/12/26 08:08:30;;;;;;;59.00;46.17;;;;;;;7.58;100.00;100664.78;4952699;28;20452;-46
2022/12/26 08:10:59;;;;;;;66.90;47.37;;;;;;;7.58;100.00;100654.16;4951170;29;21063;-46
2022/12/26 08:13:28;;;;;;;57.80;45.60;;;;;;;7.59;100.00;100653.13;4952169;29;20432;-44
2022/12/26 08:15:56;;;;;;;53.40;44.97;;;;;;;7.62;100.00;100659.91;4951280;29;20885;-45
2022/12/26 08:18:24;;;;;;;58.77;44.60;;;;;;;7.63;100.00;100665.03;4952221;28;20435;-44
2022/12/26 08:20:53;;;;;;;52.23;44.93;;;;;;;7.64;100.00;100660.56;4951928;28;20507;-46
2022/12/26 08:23:20;;;;;;;59.53;47.60;;;;;;;7.66;100.00;100661.19;4952162;29;20475;-45
2022/12/26 08:25:48;;;;;;;58.43;46.60;;;;;;;7.66;100.00;100662.03;4951990;29;20443;-48
2022/12/26 08:28:16;;;;;;;56.57;46.50;;;;;;;7.68;100.00;100652.06;4952339;28;20506;-47
2022/12/26 08:30:44;;;;;;;58.77;48.87;;;;;;;7.69;100.00;100656.38;4951528;28;20487;-46
2022/12/26 08:33:12;;;;;;;54.87;45.80;;;;;;;7.74;100.00;100650.50;4952052;29;20438;-46
2022/12/26 08:35:40;;;;;;;50.17;44.90;;;;;;;7.76;100.00;100645.84;4952110;29;20435;-48
2022/12/26 08:38:09;;;;;;;52.90;47.63;;;;;;;7.75;100.00;100641.53;4947469;28;20447;-49
2022/12/26 08:40:37;;;;;;;52.00;45.93;;;;;;;7.77;100.00;100645.66;4951520;28;20475;-44
2022/12/26 08:43:12;;;;;;;51.37;46.50;;;;;;;7.77;100.00;100645.66;4951808;29;20988;-45
2022/12/26 08:46:01;;;;;;;53.37;47.27;;;;;;;7.80;100.00;100636.50;4951844;29;20424;-46
2022/12/26 08:48:29;;;;;;;57.43;48.70;;;;;;;7.84;100.00;100631.66;4951929;28;20459;-46
2022/12/26 08:50:59;;;;;;;50.80;45.67;;;;;;;7.87;100.00;100633.97;4951082;28;20468;-44
2022/12/26 08:53:31;;;;;;;51.27;45.90;;;;;;;7.91;100.00;100632.59;4955374;29;20432;-44
2022/12/26 08:55:59;;;;;;;48.17;43.43;;;;;;;7.92;100.00;100627.09;4956040;29;20435;-47
2022/12/26 08:58:28;;;;;;;48.67;43.83;;;;;;;7.93;100.00;100631.41;4955842;28;20463;-47
2022/12/26 09:00:56;;;;;;;46.30;42.33;;;;;;;7.94;100.00;100634.91;4955336;28;20471;-44
2022/12/26 09:03:23;;;;;;;48.47;43.83;;;;;;;7.95;100.00;100629.38;4955715;29;20490;-45
2022/12/26 09:05:51;;;;;;;45.83;41.40;;;;;;;8.00;100.00;100623.53;4954940;29;20445;-46
2022/12/26 09:08:19;;;;;;;44.67;40.57;;;;;;;8.01;100.00;100622.53;4955868;28;20440;-45
2022/12/26 09:10:47;;;;;;;45.23;41.23;;;;;;;8.02;100.00;100619.69;4955283;28;20478;-44
2022/12/26 09:13:15;;;;;;;45.13;41.30;;;;;;;8.05;100.00;100631.78;4955392;29;20940;-48
2022/12/26 09:15:43;;;;;;;48.33;44.07;;;;;;;8.06;100.00;100628.97;4954221;29;20439;-44
2022/12/26 09:18:11;;;;;;;46.27;42.37;;;;;;;8.12;100.00;100632.72;4955622;28;20459;-44
2022/12/26 09:20:39;;;;;;;48.60;43.90;;;;;;;8.14;100.00;100626.19;4954818;28;20509;-44
2022/12/26 09:23:09;;;;;;;48.07;43.70;;;;;;;8.19;100.00;100625.63;4955350;29;20498;-44
2022/12/26 09:25:37;;;;;;;46.77;42.40;;;;;;;8.20;100.00;100622.81;4955486;29;20513;-44
2022/12/26 09:28:06;;;;;;;45.70;41.60;;;;;;;8.26;100.00;100614.09;4955396;29;20440;-46
2022/12/26 09:30:34;;;;;;;46.97;42.87;;;;;;;8.28;100.00;100622.72;4954175;28;20474;-46
2022/12/26 09:33:02;;;;;;;47.27;43.03;;;;;;;8.36;100.00;100618.34;4954978;29;20431;-45
2022/12/26 09:35:30;;;;;;;47.87;43.37;;;;;;;8.37;100.00;100617.31;4955290;29;20440;-45
2022/12/26 09:37:58;;;;;;;48.77;44.10;;;;;;;8.39;100.00;100612.66;4952119;29;20439;-46
2022/12/26 09:40:36;;;;;;;48.60;44.00;;;;;;;8.43;100.00;100620.06;4954301;28;21136;-45
2022/12/26 09:43:19;;;;;;;51.30;46.10;;;;;;;8.43;100.00;100616.56;4954362;29;20483;-44
2022/12/26 09:45:57;;;;;;;48.03;43.73;;;;;;;8.48;100.00;100622.19;4935925;29;20499;-47
2022/12/26 09:48:31;;;;;;;49.83;45.33;;;;;;;8.48;100.00;100604.41;4955400;28;20442;-47
2022/12/26 09:50:59;;;;;;;48.50;43.87;;;;;;;8.52;100.00;100604.84;4954400;28;20479;-45
2022/12/26 09:53:33;;;;;;;48.37;43.97;;;;;;;8.52;100.00;100607.50;4954821;29;20436;-45
2022/12/26 09:56:05;;;;;;;47.77;43.70;;;;;;;8.60;100.00;100597.56;4954991;29;20439;-46
2022/12/26 09:58:45;;;;;;;46.87;42.67;;;;;;;8.66;100.00;100604.00;4954468;28;20456;-47
2022/12/26 10:01:15;;;;;;;48.57;44.00;;;;;;;8.67;100.00;100595.81;4954602;29;20436;-47
2022/12/26 10:03:47;;;;;;;49.13;44.67;;;;;;;8.77;100.00;100591.03;4953952;28;20476;-46
2022/12/26 10:06:18;;;;;;;46.83;42.97;;;;;;;8.83;100.00;100592.09;4954439;29;20439;-48
2022/12/26 10:09:13;;;;;;;47.50;43.37;;;;;;;8.92;100.00;100590.97;4954178;28;20462;-46
2022/12/26 10:12:04;;;;;;;47.90;43.80;;;;;;;8.85;100.00;100587.41;4954331;29;20428;-49
2022/12/26 10:14:40;;;;;;;47.27;43.33;;;;;;;8.89;100.00;100588.69;4953344;29;20448;-47
2022/12/26 10:17:18;;;;;;;46.10;42.40;;;;;;;8.90;100.00;100583.16;4954362;29;20442;-45
2022/12/26 10:20:00;;;;;;;46.67;42.77;;;;;;;8.93;100.00;100581.16;4953421;28;20827;-48
2022/12/26 10:22:42;;;;;;;43.40;40.00;;;;;;;8.93;100.00;100570.53;4916631;29;20448;-45
2022/12/26 10:25:16;;;;;;;44.47;40.80;;;;;;;8.93;100.00;100570.53;4989982;22;20493;-48
2022/12/26 10:27:48;;;;;;;44.57;40.90;;;;;;;8.96;100.00;100565.63;4992095;28;20418;-49
2022/12/26 10:30:21;;;;;;;46.50;42.63;;;;;;;9.01;100.00;100559.75;4991042;28;20473;-49
2022/12/26 10:32:55;;;;;;;43.60;40.20;;;;;;;9.04;100.00;100554.06;4992235;28;20818;-48
2022/12/26 10:35:30;;;;;;;43.23;39.90;;;;;;;9.05;100.00;100553.06;4991438;28;20546;-49
2022/12/26 10:38:01;;;;;;;43.77;40.33;;;;;;;9.09;100.00;100554.28;4987358;28;20434;-51
2022/12/26 10:40:35;;;;;;;45.50;41.87;;;;;;;9.06;100.00;100554.69;4987628;28;20508;-48
2022/12/26 10:43:20;;;;;;;43.27;39.80;;;;;;;9.06;100.00;100555.50;4991746;28;20488;-49
2022/12/26 10:45:58;;;;;;;42.80;39.50;;;;;;;9.03;100.00;100561.22;4992876;28;20454;-52
2022/12/26 10:48:28;;;;;;;43.90;40.63;;;;;;;9.03;100.00;100555.88;4989178;28;20470;-48
2022/12/26 10:50:55;;;;;;;45.37;41.87;;;;;;;9.02;100.00;100548.91;4958571;28;20837;-50
2022/12/26 10:53:23;;;;;;;41.73;38.33;;;;;;;9.03;100.00;100555.06;4952507;29;20782;-50
2022/12/26 10:55:51;;;;;;;45.30;41.70;;;;;;;9.01;100.00;100552.59;4978082;28;20815;-47
2022/12/26 10:58:22;;;;;;;43.83;40.47;;;;;;;8.95;100.00;100544.56;4991971;28;20795;-50
2022/12/26 11:00:51;;;;;;;43.80;40.70;;;;;;;8.97;100.00;100537.19;4990225;28;20465;-50
2022/12/26 11:03:20;;;;;;;41.83;38.73;;;;;;;8.98;100.00;100537.03;4991076;28;20430;-48
2022/12/26 11:05:53;;;;;;;41.67;38.67;;;;;;;9.02;100.00;100535.59;4985657;28;20598;-48
2022/12/26 11:08:39;;;;;;;42.87;39.70;;;;;;;9.02;100.00;100529.50;4974683;28;20434;-51
2022/12/26 11:11:14;;;;;;;41.87;38.13;;;;;;;9.02;100.00;100529.50;4973129;28;20447;-51
2022/12/26 11:13:47;;;;;;;42.33;39.03;;;;;;;9.06;100.00;100518.25;4987697;28;20437;-50
2022/12/26 11:16:25;;;;;;;42.13;38.73;;;;;;;9.11;100.00;100515.03;4990472;28;20436;-53
2022/12/26 11:18:53;;;;;;;41.33;38.00;;;;;;;9.18;100.00;100508.75;4981234;28;20514;-52
2022/12/26 11:21:24;;;;;;;41.63;38.13;;;;;;;9.18;100.00;100494.63;4990136;28;20474;-49
2022/12/26 11:23:54;;;;;;;39.67;36.67;;;;;;;9.24;100.00;100494.66;4991121;28;20445;-51
2022/12/26 11:26:24;;;;;;;41.47;38.07;;;;;;;9.28;100.00;100490.63;4985587;28;20443;-48
2022/12/26 11:29:06;;;;;;;38.80;36.00;;;;;;;9.28;100.00;100487.97;4970863;28;20445;-49
2022/12/26 11:31:36;;;;;;;41.13;37.83;;;;;;;9.22;100.00;100488.72;4970492;28;20446;-47
2022/12/26 11:34:09;;;;;;;40.47;37.30;;;;;;;9.31;100.00;100476.91;4953420;29;20491;-50
2022/12/26 11:36:40;;;;;;;40.97;37.80;;;;;;;9.28;100.00;100472.00;4955367;28;20941;-50
2022/12/26 11:39:22;;;;;;;39.70;36.83;;;;;;;9.21;100.00;100475.59;4983676;28;20454;-50
2022/12/26 11:41:51;;;;;;;39.50;36.70;;;;;;;9.16;100.00;100470.06;4990601;28;20927;-47
2022/12/26 11:44:24;;;;;;;39.90;37.10;;;;;;;9.08;100.00;100483.50;4990248;28;20480;-49
2022/12/26 11:46:57;;;;;;;39.40;36.40;;;;;;;9.05;100.00;100473.25;4990713;28;20442;-46
2022/12/26 11:49:29;;;;;;;39.37;36.47;;;;;;;9.00;100.00;100473.81;4991024;28;20500;-51
2022/12/26 11:51:59;;;;;;;37.93;35.07;;;;;;;9.00;100.00;100481.78;4992164;28;20789;-51
2022/12/26 11:54:31;;;;;;;36.90;34.50;;;;;;;8.98;100.00;100485.66;4991740;28;20457;-49
2022/12/26 11:57:11;;;;;;;39.00;36.13;;;;;;;8.96;100.00;100488.50;4992423;28;20529;-48
2022/12/26 11:59:39;;;;;;;42.10;38.90;;;;;;;8.93;100.00;100472.94;4991529;28;21004;-48
2022/12/26 12:02:24;;;;;;;41.00;37.97;;;;;;;8.85;100.00;100473.91;4991567;28;20442;-47
2022/12/26 12:04:57;;;;;;;38.20;35.53;;;;;;;8.82;100.00;100474.28;4991099;28;20517;-48
2022/12/26 12:07:43;;;;;;;39.43;36.53;;;;;;;8.74;100.00;100479.75;4991798;28;20414;-53
2022/12/26 12:10:34;;;;;;;40.57;37.17;;;;;;;8.74;100.00;100478.91;4989991;28;20462;-47
2022/12/26 12:13:11;;;;;;;38.23;35.73;;;;;;;8.69;100.00;100476.81;4991243;28;21001;-47
2022/12/26 12:15:49;;;;;;;37.20;34.80;;;;;;;8.69;100.00;100463.53;4991393;28;20453;-52
2022/12/26 12:18:30;;;;;;;37.90;35.30;;;;;;;8.73;100.00;100454.16;4990406;28;20437;-51
2022/12/26 12:21:07;;;;;;;35.33;33.20;;;;;;;8.70;100.00;100456.38;4990979;28;20528;-49
2022/12/26 12:23:51;;;;;;;36.70;34.30;;;;;;;8.70;100.00;100451.88;4991977;28;20434;-50
2022/12/26 12:26:27;;;;;;;35.00;32.60;;;;;;;8.62;100.00;100440.56;4990459;28;20489;-48
2022/12/26 12:29:13;;;;;;;35.83;33.47;;;;;;;8.58;100.00;100453.41;4991073;28;20422;-48
2022/12/26 12:31:55;;;;;;;36.23;33.63;;;;;;;8.54;100.00;100446.03;4990567;28;20433;-49
2022/12/26 12:34:31;;;;;;;36.67;34.07;;;;;;;8.52;100.00;100453.34;4990053;28;20488;-49
2022/12/26 12:37:22;;;;;;;34.00;31.57;;;;;;;8.31;100.00;100452.34;4987584;28;20434;-48
2022/12/26 12:39:57;;;;;;;34.10;31.60;;;;;;;8.18;100.00;100464.63;4982460;28;20476;-48
2022/12/26 12:42:35;;;;;;;31.50;28.77;;;;;;;8.09;100.00;100458.63;4991400;28;21289;-50
2022/12/26 12:45:20;;;;;;;29.93;27.80;;;;;;;8.03;100.00;100463.84;4990387;28;20585;-48
2022/12/26 12:47:59;;;;;;;30.63;28.03;;;;;;;7.89;100.00;100468.16;4991599;28;20410;-49
2022/12/26 12:50:32;;;;;;;30.73;28.23;;;;;;;7.82;100.00;100453.16;4990880;28;20675;-47
2022/12/26 12:53:09;;;;;;;30.73;28.83;;;;;;;7.82;100.00;100462.75;4990593;28;20428;-48
2022/12/26 12:56:01;;;;;;;30.73;28.53;;;;;;;7.77;100.00;100465.16;4991289;28;20457;-51
2022/12/26 12:58:37;;;;;;;33.90;30.40;;;;;;;7.76;100.00;100468.00;4990997;28;20796;-53
2022/12/26 13:01:11;;;;;;;36.70;29.53;;;;;;;7.64;100.00;100462.34;4991107;28;20523;-52
2022/12/26 13:03:46;;;;;;;34.27;30.77;;;;;;;7.57;100.00;100466.75;4990903;28;20461;-48
2022/12/26 13:06:18;;;;;;;31.03;28.40;;;;;;;7.46;100.00;100474.34;4990291;28;20473;-51
2022/12/26 13:08:51;;;;;;;30.83;28.30;;;;;;;7.37;100.00;100484.22;4990841;28;20440;-52
2022/12/26 13:11:25;;;;;;;29.93;27.57;;;;;;;7.32;100.00;100483.13;4991200;28;20492;-48
2022/12/26 13:13:56;;;;;;;31.30;28.63;;;;;;;7.29;100.00;100504.69;4991445;28;20564;-47
2022/12/26 13:16:28;;;;;;;43.27;29.00;;;;;;;7.33;100.00;100505.97;4990836;28;20433;-49
2022/12/26 13:18:59;;;;;;;30.57;28.20;;;;;;;7.30;100.00;100511.63;4990820;28;20436;-49
2022/12/26 13:21:32;;;;;;;33.03;28.33;;;;;;;7.30;100.00;100514.28;4990135;28;20954;-47
2022/12/26 13:26:56;;;;;;;30.87;28.20;;;;;;;7.24;100.00;100526.44;4990625;28;20485;-48
2022/12/26 13:29:35;;;;;;;32.77;29.20;;;;;;;7.08;100.00;100532.72;4990528;28;20519;-48
2022/12/26 13:32:05;;;;;;;30.17;28.17;;;;;;;6.90;100.00;100542.81;4990580;28;20441;-47
2022/12/26 13:34:42;;;;;;;31.40;29.13;;;;;;;6.81;100.00;100546.50;4990376;28;20462;-49